createdAt,value
2023-03-06T00:01:05.236Z,0.55
2023-03-06T00:03:31.756Z,0.53
2023-03-06T00:05:58.404Z,0.53
2023-03-06T00:08:26.027Z,0.51
2023-03-06T00:10:52.401Z,0.50
2023-03-06T00:13:19.238Z,0.47
2023-03-06T00:15:46.970Z,0.47
2023-03-06T00:18:14.192Z,0.40
2023-03-06T00:20:43.158Z,0.42
2023-03-06T00:23:11.107Z,0.41
2023-03-06T00:25:37.449Z,0.36
2023-03-06T00:28:04.874Z,0.31
2023-03-06T00:30:31.304Z,0.26
2023-03-06T00:32:57.664Z,0.26
2023-03-06T00:35:24.048Z,0.27
2023-03-06T00:37:50.361Z,0.28
2023-03-06T00:40:19.217Z,0.32
2023-03-06T00:42:46.206Z,0.32
2023-03-06T00:45:13.259Z,0.30
2023-03-06T00:47:40.107Z,0.33
2023-03-06T00:50:07.505Z,0.30
2023-03-06T00:55:13.331Z,0.25
2023-03-06T00:57:39.762Z,0.24
2023-03-06T01:00:07.493Z,0.28
2023-03-06T01:02:33.938Z,0.27
2023-03-06T01:05:00.565Z,0.27
2023-03-06T01:07:27.081Z,0.22
2023-03-06T01:09:53.402Z,0.19
2023-03-06T01:12:22.144Z,0.10
2023-03-06T01:14:49.595Z,0.09
2023-03-06T01:17:16.046Z,0.08
2023-03-06T01:19:42.329Z,0.11
2023-03-06T01:22:08.718Z,0.15
2023-03-06T01:24:35.040Z,0.06
2023-03-06T01:27:01.399Z,0.08
2023-03-06T01:29:27.739Z,0.12
2023-03-06T01:31:54.107Z,0.09
2023-03-06T01:34:20.488Z,0.06
2023-03-06T01:36:46.792Z,0.04
2023-03-06T01:39:13.090Z,-0.01
2023-03-06T01:41:39.411Z,0.00
2023-03-06T01:44:05.705Z,0.04
2023-03-06T01:46:33.926Z,-0.01
2023-03-06T01:51:38.011Z,0.00
2023-03-06T01:54:11.663Z,-0.02
2023-03-06T01:56:41.942Z,0.00
2023-03-06T01:59:08.491Z,0.05
2023-03-06T02:01:35.786Z,0.09
2023-03-06T02:04:02.288Z,0.09
2023-03-06T02:06:28.622Z,0.12
2023-03-06T02:08:55.889Z,0.16
2023-03-06T02:11:24.339Z,0.16
2023-03-06T02:13:53.530Z,0.17
2023-03-06T02:16:24.558Z,0.25
2023-03-06T02:18:51.334Z,0.26
2023-03-06T02:21:25.136Z,0.20
2023-03-06T02:24:10.017Z,0.22
2023-03-06T02:26:38.189Z,0.27
2023-03-06T02:29:04.924Z,0.24
2023-03-06T02:31:33.868Z,0.26
2023-03-06T02:34:06.524Z,0.24
2023-03-06T02:36:37.769Z,0.26
2023-03-06T02:39:05.186Z,0.23
2023-03-06T02:41:31.628Z,0.24
2023-03-06T02:43:57.954Z,0.29
2023-03-06T02:46:24.318Z,0.30
2023-03-06T02:48:50.645Z,0.31
2023-03-06T02:51:16.986Z,0.30
2023-03-06T02:53:43.270Z,0.32
2023-03-06T02:56:09.595Z,0.35
2023-03-06T02:58:35.955Z,0.35
2023-03-06T03:01:02.288Z,0.39
2023-03-06T03:03:28.719Z,0.38
2023-03-06T03:05:55.297Z,0.39
2023-03-06T03:08:21.916Z,0.44
2023-03-06T03:10:48.234Z,0.45
2023-03-06T03:13:14.524Z,0.45
2023-03-06T03:15:40.922Z,0.52
2023-03-06T03:18:07.247Z,0.47
2023-03-06T03:22:59.804Z,0.55
2023-03-06T03:25:26.139Z,0.53
2023-03-06T03:27:52.484Z,0.54
2023-03-06T03:30:18.922Z,0.58
2023-03-06T03:32:45.259Z,0.64
2023-03-06T03:35:11.798Z,0.65
2023-03-06T03:37:38.464Z,0.65
2023-03-06T03:42:29.902Z,0.69
2023-03-06T03:44:56.219Z,0.76
2023-03-06T03:47:22.506Z,0.76
2023-03-06T03:49:48.826Z,0.77
2023-03-06T03:52:15.460Z,0.78
2023-03-06T03:54:41.763Z,0.79
2023-03-06T03:57:08.157Z,0.86
2023-03-06T04:02:11.670Z,0.97
2023-03-06T04:04:38.215Z,0.98
2023-03-06T04:09:41.616Z,0.96
2023-03-06T04:12:08.163Z,1.00
2023-03-06T04:17:13.474Z,1.04
2023-03-06T04:19:39.800Z,1.14
2023-03-06T04:22:06.097Z,1.20
2023-03-06T04:24:32.417Z,1.13
2023-03-06T04:26:58.715Z,1.13
2023-03-06T04:29:25.059Z,1.15
2023-03-06T04:31:51.353Z,1.10
2023-03-06T04:34:17.659Z,1.07
2023-03-06T04:36:43.973Z,0.99
2023-03-06T04:39:11.698Z,0.94
2023-03-06T04:41:39.322Z,0.91
2023-03-06T04:44:06.700Z,0.86
2023-03-06T04:46:33.374Z,0.77
2023-03-06T04:48:59.744Z,0.74
2023-03-06T04:51:26.479Z,0.68
2023-03-06T04:53:52.837Z,0.70
2023-03-06T04:56:19.122Z,0.70
2023-03-06T04:58:45.534Z,0.67
2023-03-06T05:01:12.062Z,0.64
2023-03-06T05:03:38.473Z,0.66
2023-03-06T05:06:05.499Z,0.72
2023-03-06T05:08:31.846Z,0.67
2023-03-06T05:11:00.672Z,0.67
2023-03-06T05:13:27.907Z,0.61
2023-03-06T05:15:54.626Z,0.60
2023-03-06T05:18:21.390Z,0.61
2023-03-06T05:20:47.804Z,0.54
2023-03-06T05:23:14.105Z,0.48
2023-03-06T05:25:40.856Z,0.57
2023-03-06T05:28:07.927Z,0.47
2023-03-06T05:30:34.307Z,0.42
2023-03-06T05:33:00.859Z,0.47
2023-03-06T05:35:27.229Z,0.48
2023-03-06T05:37:53.887Z,0.37
2023-03-06T05:40:20.569Z,0.35
2023-03-06T05:42:46.876Z,0.43
2023-03-06T05:45:13.230Z,0.33
2023-03-06T05:47:39.534Z,0.35
2023-03-06T05:50:06.098Z,0.38
2023-03-06T05:52:32.426Z,0.37
2023-03-06T05:54:58.873Z,0.26
2023-03-06T05:57:25.175Z,0.36
2023-03-06T05:59:51.658Z,0.26
2023-03-06T06:02:18.829Z,0.25
2023-03-06T06:04:45.483Z,0.18
2023-03-06T06:07:16.025Z,0.28
2023-03-06T06:09:42.977Z,0.25
2023-03-06T06:12:09.505Z,0.24
2023-03-06T06:14:35.798Z,0.24
2023-03-06T06:17:02.289Z,0.36
2023-03-06T06:19:30.473Z,0.25
2023-03-06T06:21:57.425Z,0.21
2023-03-06T06:24:26.430Z,0.24
2023-03-06T06:26:54.428Z,0.22
2023-03-06T06:29:21.834Z,0.31
2023-03-06T06:31:48.166Z,0.24
2023-03-06T06:34:14.485Z,0.28
2023-03-06T06:36:41.109Z,0.25
2023-03-06T06:39:09.492Z,0.35
2023-03-06T06:41:54.811Z,0.22
2023-03-06T06:44:22.480Z,0.23
2023-03-06T06:49:36.597Z,0.22
2023-03-06T06:52:04.377Z,0.15
2023-03-06T06:54:30.661Z,0.24
2023-03-06T06:56:56.959Z,0.24
2023-03-06T06:59:23.278Z,0.20
2023-03-06T07:01:50.742Z,0.17
2023-03-06T07:04:16.995Z,0.24
2023-03-06T07:06:43.900Z,0.23
2023-03-06T07:09:10.565Z,0.21
2023-03-06T07:11:38.099Z,0.21
2023-03-06T07:14:04.442Z,0.15
2023-03-06T07:16:30.935Z,0.15
2023-03-06T07:18:57.316Z,0.23
2023-03-06T07:21:23.593Z,0.22
2023-03-06T07:23:49.955Z,0.16
2023-03-06T07:26:16.267Z,0.22
2023-03-06T07:28:52.118Z,0.22
2023-03-06T07:31:21.195Z,0.25
2023-03-06T07:33:48.742Z,0.31
2023-03-06T07:36:15.019Z,0.27
2023-03-06T07:38:41.360Z,0.44
2023-03-06T07:41:07.680Z,0.40
2023-03-06T07:46:00.691Z,0.38
2023-03-06T07:48:27.937Z,0.42
2023-03-06T07:50:58.058Z,0.45
2023-03-06T07:53:24.724Z,0.43
2023-03-06T07:55:51.174Z,0.32
2023-03-06T07:58:17.473Z,0.40
2023-03-06T08:00:43.819Z,0.38
2023-03-06T08:03:11.892Z,0.38
2023-03-06T08:05:38.837Z,0.46
2023-03-06T08:08:05.455Z,0.46
2023-03-06T08:10:31.795Z,0.57
2023-03-06T08:12:58.308Z,0.62
2023-03-06T08:15:24.596Z,0.64
2023-03-06T08:17:51.201Z,0.59
2023-03-06T08:20:17.788Z,0.59
2023-03-06T08:22:44.574Z,0.55
2023-03-06T08:25:11.650Z,0.66
2023-03-06T08:27:37.971Z,0.77
2023-03-06T08:30:05.716Z,0.88
2023-03-06T08:32:35.503Z,0.93
2023-03-06T08:35:06.085Z,0.85
2023-03-06T08:37:32.459Z,0.83
2023-03-06T08:39:58.765Z,0.93
2023-03-06T08:42:25.157Z,0.78
2023-03-06T08:44:51.456Z,0.82
2023-03-06T08:47:17.727Z,0.95
2023-03-06T08:49:44.043Z,0.86
2023-03-06T08:52:10.323Z,0.95
2023-03-06T08:54:36.670Z,0.94
2023-03-06T08:57:03.099Z,0.78
2023-03-06T08:59:29.423Z,0.92
2023-03-06T09:01:55.948Z,0.89
2023-03-06T09:04:22.356Z,0.89
2023-03-06T09:06:48.745Z,0.95
2023-03-06T09:09:15.085Z,0.90
2023-03-06T09:11:41.529Z,0.92
2023-03-06T09:14:07.886Z,0.89
2023-03-06T09:19:00.464Z,1.10
2023-03-06T09:21:26.810Z,1.14
2023-03-06T09:23:53.098Z,1.24
2023-03-06T09:26:19.581Z,1.27
2023-03-06T09:28:45.934Z,1.27
2023-03-06T09:31:15.278Z,1.32
2023-03-06T09:33:41.676Z,1.33
2023-03-06T09:36:10.276Z,1.29
2023-03-06T09:38:36.555Z,1.28
2023-03-06T09:41:18.909Z,1.28
2023-03-06T09:43:50.017Z,1.28
2023-03-06T09:46:16.311Z,1.26
2023-03-06T09:49:02.381Z,1.26
2023-03-06T09:51:43.873Z,1.22
2023-03-06T09:54:14.951Z,1.17
2023-03-06T09:56:48.899Z,1.06
2023-03-06T09:59:21.586Z,1.08
2023-03-06T10:02:02.678Z,1.19
2023-03-06T10:04:41.585Z,1.30
2023-03-06T10:07:23.601Z,1.36
2023-03-06T10:10:06.546Z,1.38
2023-03-06T10:12:38.650Z,1.37
2023-03-06T10:15:06.532Z,1.33
2023-03-06T10:17:41.247Z,1.38
2023-03-06T10:20:27.278Z,1.17
2023-03-06T10:23:12.149Z,1.31
2023-03-06T10:25:51.264Z,1.37
2023-03-06T10:28:21.092Z,1.40
2023-03-06T10:31:06.595Z,1.27
2023-03-06T10:33:52.735Z,1.28
2023-03-06T10:36:20.695Z,1.29
2023-03-06T10:38:48.099Z,1.29
2023-03-06T10:41:14.287Z,1.29
2023-03-06T10:43:45.452Z,1.38
2023-03-06T10:46:25.866Z,1.50
2023-03-06T10:48:58.915Z,1.46
2023-03-06T10:51:26.239Z,1.48
2023-03-06T10:53:58.032Z,1.37
2023-03-06T10:56:29.414Z,1.44
2023-03-06T10:59:08.528Z,1.53
2023-03-06T11:01:35.322Z,1.56
2023-03-06T11:04:26.550Z,1.58
2023-03-06T11:07:24.443Z,1.53
2023-03-06T11:09:56.564Z,1.50
2023-03-06T11:12:29.114Z,1.65
2023-03-06T11:15:20.079Z,1.63
2023-03-06T11:18:09.670Z,1.63
2023-03-06T11:20:51.833Z,1.61
2023-03-06T11:23:22.014Z,1.65
2023-03-06T11:25:55.448Z,1.67
2023-03-06T11:31:11.490Z,1.56
2023-03-06T11:34:11.731Z,1.69
2023-03-06T11:36:52.788Z,1.65
2023-03-06T11:39:28.994Z,1.59
2023-03-06T11:44:52.949Z,1.66
2023-03-06T11:47:28.395Z,1.61
2023-03-06T11:50:12.117Z,1.63
2023-03-06T11:52:44.216Z,1.78
2023-03-06T11:55:16.192Z,1.78
2023-03-06T11:58:09.438Z,1.82
2023-03-06T12:01:06.112Z,1.91
2023-03-06T12:04:00.727Z,1.95
2023-03-06T12:06:51.405Z,2.08
2023-03-06T12:09:29.842Z,2.30
2023-03-06T12:12:05.255Z,2.33
2023-03-06T12:14:39.341Z,2.31
2023-03-06T12:17:26.211Z,2.31
2023-03-06T12:20:16.350Z,2.39
2023-03-06T12:23:02.569Z,2.47
2023-03-06T12:25:37.567Z,2.51
2023-03-06T12:30:39.305Z,2.41
2023-03-06T12:33:07.343Z,2.43
2023-03-06T12:35:37.554Z,2.48
2023-03-06T12:40:48.916Z,2.37
2023-03-06T12:43:34.094Z,2.22
2023-03-06T12:46:07.383Z,2.36
2023-03-06T12:48:37.438Z,2.17
2023-03-06T12:51:07.597Z,2.31
2023-03-06T12:53:34.408Z,2.43
2023-03-06T12:56:02.572Z,2.53
2023-03-06T12:58:28.862Z,2.47
2023-03-06T13:01:04.788Z,2.65
2023-03-06T13:03:37.519Z,2.65
2023-03-06T13:06:06.865Z,2.79
2023-03-06T13:08:37.340Z,2.93
2023-03-06T13:11:09.555Z,2.99
2023-03-06T13:13:44.134Z,2.84
2023-03-06T13:16:18.411Z,2.88
2023-03-06T13:18:44.709Z,2.96
2023-03-06T13:21:42.481Z,3.03
2023-03-06T13:24:17.683Z,2.99
2023-03-06T13:26:43.958Z,3.21
2023-03-06T13:29:38.209Z,3.46
2023-03-06T13:32:13.528Z,3.38
2023-03-06T13:34:41.629Z,3.32
2023-03-06T13:37:13.964Z,3.35
2023-03-06T13:39:52.422Z,3.45
2023-03-06T13:42:56.003Z,3.57
2023-03-06T13:45:39.231Z,3.68
2023-03-06T13:48:41.536Z,3.82
2023-03-06T13:50:53.418Z,4.03
2023-03-06T13:53:56.606Z,3.93
2023-03-06T13:57:07.552Z,3.50
2023-03-06T14:00:09.837Z,3.62
2023-03-06T14:02:36.625Z,3.79
2023-03-06T14:07:39.205Z,3.80
2023-03-06T14:10:11.431Z,3.52
2023-03-06T14:12:41.912Z,3.34
2023-03-06T14:15:24.902Z,3.42
2023-03-06T14:18:14.056Z,3.24
2023-03-06T14:20:44.606Z,3.04
2023-03-06T14:23:23.388Z,2.90
2023-03-06T14:26:02.625Z,2.87
2023-03-06T14:28:31.049Z,3.06
2023-03-06T14:30:59.420Z,3.11
2023-03-06T14:33:32.185Z,2.92
2023-03-06T14:36:02.158Z,2.85
2023-03-06T14:38:34.169Z,2.74
2023-03-06T14:41:01.488Z,2.91
2023-03-06T14:43:27.997Z,2.84
2023-03-06T14:46:02.539Z,3.00
2023-03-06T14:48:48.682Z,3.08
2023-03-06T14:51:21.673Z,3.12
2023-03-06T14:53:50.858Z,3.16
2023-03-06T14:56:21.563Z,3.15
2023-03-06T14:59:01.390Z,2.96
2023-03-06T15:01:37.538Z,3.01
2023-03-06T15:04:29.582Z,2.73
2023-03-06T15:06:57.525Z,2.70
2023-03-06T15:09:26.176Z,2.72
2023-03-06T15:12:07.997Z,2.67
2023-03-06T15:17:19.029Z,2.67
2023-03-06T15:19:47.549Z,2.64
2023-03-06T15:22:40.120Z,2.62
2023-03-06T15:25:21.625Z,2.64
2023-03-06T15:27:54.315Z,2.61
2023-03-06T15:30:24.881Z,2.64
2023-03-06T15:32:51.643Z,2.65
2023-03-06T15:35:24.103Z,2.45
2023-03-06T15:37:51.301Z,2.45
2023-03-06T15:40:22.560Z,2.49
2023-03-06T15:42:49.256Z,2.49
2023-03-06T15:45:20.944Z,2.36
2023-03-06T15:47:48.832Z,2.32
2023-03-06T15:50:16.402Z,2.30
2023-03-06T15:52:44.325Z,2.27
2023-03-06T15:55:12.469Z,2.25
2023-03-06T15:57:43.724Z,2.26
2023-03-06T16:00:27.402Z,2.24
2023-03-06T16:02:58.334Z,2.19
2023-03-06T16:05:26.301Z,2.08
2023-03-06T16:07:52.973Z,2.07
2023-03-06T16:10:22.649Z,1.94
2023-03-06T16:13:04.520Z,1.91
2023-03-06T16:18:14.752Z,1.75
2023-03-06T16:20:41.254Z,1.75
2023-03-06T16:23:08.037Z,1.69
2023-03-06T16:25:34.476Z,1.61
2023-03-06T16:28:01.987Z,1.51
2023-03-06T16:30:33.993Z,1.49
2023-03-06T16:33:00.781Z,1.38
2023-03-06T16:35:27.870Z,1.28
2023-03-06T16:37:54.174Z,1.19
2023-03-06T16:40:26.586Z,1.12
2023-03-06T16:42:55.073Z,1.09
2023-03-06T16:45:22.633Z,0.98
2023-03-06T16:47:49.063Z,0.87
2023-03-06T16:50:30.905Z,0.78
2023-03-06T16:52:58.404Z,0.69
2023-03-06T16:55:26.558Z,0.63
2023-03-06T16:57:54.059Z,0.47
2023-03-06T17:00:21.860Z,0.41
2023-03-06T17:02:48.908Z,0.30
2023-03-06T17:05:15.386Z,0.26
2023-03-06T17:07:41.710Z,0.19
2023-03-06T17:10:11.097Z,0.15
2023-03-06T17:12:37.572Z,0.17
2023-03-06T17:17:42.780Z,0.17
2023-03-06T17:20:11.427Z,0.16
2023-03-06T17:22:40.831Z,0.12
2023-03-06T17:25:08.752Z,0.09
2023-03-06T17:27:36.310Z,0.04
2023-03-06T17:30:04.249Z,-0.02
2023-03-06T17:32:30.639Z,0.02
2023-03-06T17:34:56.964Z,-0.04
2023-03-06T17:37:23.350Z,-0.06
2023-03-06T17:39:50.489Z,-0.15
2023-03-06T17:42:16.876Z,-0.16
2023-03-06T17:44:43.245Z,-0.24
2023-03-06T17:47:09.540Z,-0.23
2023-03-06T17:49:35.898Z,-0.25
2023-03-06T17:52:02.200Z,-0.24
2023-03-06T17:54:28.755Z,-0.25
2023-03-06T17:56:55.328Z,-0.25
2023-03-06T17:59:21.669Z,-0.25
2023-03-06T18:01:48.011Z,-0.28
2023-03-06T18:04:14.370Z,-0.30
2023-03-06T18:06:40.697Z,-0.33
2023-03-06T18:09:08.150Z,-0.35
2023-03-06T18:11:34.342Z,-0.37
2023-03-06T18:14:00.643Z,-0.38
2023-03-06T18:16:27.044Z,-0.37
2023-03-06T18:18:56.290Z,-0.39
2023-03-06T18:21:24.049Z,-0.44
2023-03-06T18:23:50.433Z,-0.47
2023-03-06T18:26:21.050Z,-0.48
2023-03-06T18:28:51.572Z,-0.50
2023-03-06T18:31:21.126Z,-0.52
2023-03-06T18:33:48.452Z,-0.55
2023-03-06T18:36:15.826Z,-0.53
2023-03-06T18:38:42.207Z,-0.57
2023-03-06T18:41:08.565Z,-0.60
2023-03-06T18:43:36.061Z,-0.61
2023-03-06T18:46:02.322Z,-0.65
2023-03-06T18:48:29.105Z,-0.65
2023-03-06T18:50:55.717Z,-0.67
2023-03-06T18:53:22.542Z,-0.73
2023-03-06T18:55:53.180Z,-0.76
2023-03-06T18:58:20.392Z,-0.78
2023-03-06T19:00:47.042Z,-0.83
2023-03-06T19:03:13.836Z,-0.85
2023-03-06T19:05:45.611Z,-0.87
2023-03-06T19:08:12.004Z,-0.92
2023-03-06T19:10:40.645Z,-0.93
2023-03-06T19:13:07.801Z,-0.97
2023-03-06T19:15:34.356Z,-0.99
2023-03-06T19:18:00.723Z,-1.03
2023-03-06T19:20:27.160Z,-1.08
2023-03-06T19:22:53.508Z,-1.10
2023-03-06T19:25:20.147Z,-1.13
2023-03-06T19:27:46.431Z,-1.13
2023-03-06T19:30:14.637Z,-1.17
2023-03-06T19:32:44.687Z,-1.19
2023-03-06T19:35:11.913Z,-1.23
2023-03-06T19:37:38.222Z,-1.23
2023-03-06T19:40:05.406Z,-1.24
2023-03-06T19:42:32.200Z,-1.26
2023-03-06T19:45:01.673Z,-1.25
2023-03-06T19:47:28.079Z,-1.27
2023-03-06T19:49:54.394Z,-1.29
2023-03-06T19:52:20.829Z,-1.28
2023-03-06T19:54:47.103Z,-1.29
2023-03-06T19:57:14.010Z,-1.32
2023-03-06T19:59:40.321Z,-1.33
2023-03-06T20:02:06.701Z,-1.34
2023-03-06T20:04:34.327Z,-1.38
2023-03-06T20:07:00.766Z,-1.40
2023-03-06T20:09:27.243Z,-1.43
2023-03-06T20:11:53.554Z,-1.42
2023-03-06T20:14:19.855Z,-1.46
2023-03-06T20:16:46.147Z,-1.50
2023-03-06T20:19:12.465Z,-1.52
2023-03-06T20:21:38.800Z,-1.54
2023-03-06T20:24:07.220Z,-1.57
2023-03-06T20:26:33.587Z,-1.59
2023-03-06T20:29:00.223Z,-1.64
2023-03-06T20:31:29.292Z,-1.65
2023-03-06T20:33:58.027Z,-1.67
2023-03-06T20:36:36.493Z,-1.70
2023-03-06T20:39:05.540Z,-1.71
2023-03-06T20:41:32.830Z,-1.75
2023-03-06T20:44:00.833Z,-1.77
2023-03-06T20:46:27.470Z,-1.77
2023-03-06T20:48:54.135Z,-1.79
2023-03-06T20:51:32.559Z,-1.80
2023-03-06T20:54:00.966Z,-1.80
2023-03-06T20:56:30.073Z,-1.81
2023-03-06T20:58:56.680Z,-1.82
2023-03-06T21:01:23.069Z,-1.81
2023-03-06T21:03:50.186Z,-1.85
2023-03-06T21:06:16.766Z,-1.83
2023-03-06T21:08:43.734Z,-1.84
2023-03-06T21:11:10.196Z,-1.87
2023-03-06T21:13:36.533Z,-1.92
2023-03-06T21:16:07.979Z,-1.96
2023-03-06T21:18:34.370Z,-1.97
2023-03-06T21:21:08.410Z,-2.03
2023-03-06T21:23:34.876Z,-2.01
2023-03-06T21:26:01.268Z,-2.03
2023-03-06T21:28:27.727Z,-2.05
2023-03-06T21:30:54.082Z,-2.05
2023-03-06T21:33:20.409Z,-2.06
2023-03-06T21:35:50.361Z,-2.08
2023-03-06T21:38:16.646Z,-2.09
2023-03-06T21:40:43.972Z,-2.14
2023-03-06T21:43:10.283Z,-2.14
2023-03-06T21:45:36.644Z,-2.15
2023-03-06T21:48:03.638Z,-2.18
2023-03-06T21:50:29.948Z,-2.22
2023-03-06T21:52:56.585Z,-2.18
2023-03-06T21:55:23.178Z,-2.21
2023-03-06T21:57:53.680Z,-2.19
2023-03-06T22:00:21.194Z,-2.22
2023-03-06T22:02:47.491Z,-2.22
2023-03-06T22:05:13.950Z,-2.21
2023-03-06T22:07:40.368Z,-2.20
2023-03-06T22:10:07.453Z,-2.22
2023-03-06T22:12:34.187Z,-2.25
2023-03-06T22:15:00.621Z,-2.25
2023-03-06T22:17:26.913Z,-2.25
2023-03-06T22:19:53.224Z,-2.25
2023-03-06T22:22:19.569Z,-2.28
2023-03-06T22:24:47.651Z,-2.29
2023-03-06T22:27:15.073Z,-2.30
2023-03-06T22:29:41.587Z,-2.31
2023-03-06T22:32:08.515Z,-2.32
2023-03-06T22:34:34.970Z,-2.33
2023-03-06T22:37:01.307Z,-2.34
2023-03-06T22:39:27.651Z,-2.35
2023-03-06T22:41:57.167Z,-2.37
2023-03-06T22:44:23.831Z,-2.39
2023-03-06T22:46:50.280Z,-2.45
2023-03-06T22:49:16.562Z,-2.47
2023-03-06T22:51:43.502Z,-2.49
2023-03-06T22:54:10.904Z,-2.46
2023-03-06T22:56:37.235Z,-2.46
2023-03-06T22:59:03.865Z,-2.48
2023-03-06T23:01:32.666Z,-2.49
2023-03-06T23:04:03.917Z,-2.54
2023-03-06T23:06:39.445Z,-2.57
2023-03-06T23:09:09.284Z,-2.58
2023-03-06T23:11:35.626Z,-2.65
2023-03-06T23:14:02.139Z,-2.68
2023-03-06T23:16:28.476Z,-2.75
2023-03-06T23:18:54.788Z,-2.74
2023-03-06T23:21:22.658Z,-2.77
2023-03-06T23:23:51.078Z,-2.76
2023-03-06T23:26:19.048Z,-2.77
2023-03-06T23:28:45.523Z,-2.82
2023-03-06T23:31:18.103Z,-2.85
2023-03-06T23:33:44.580Z,-2.88
2023-03-06T23:36:14.087Z,-2.89
2023-03-06T23:38:40.630Z,-2.91
2023-03-06T23:41:10.735Z,-2.91
2023-03-06T23:43:37.369Z,-2.93
2023-03-06T23:46:04.766Z,-3.01
2023-03-06T23:48:31.152Z,-2.99
2023-03-06T23:50:57.712Z,-3.00
2023-03-06T23:53:24.458Z,-3.00
2023-03-06T23:55:52.410Z,-2.98
2023-03-06T23:58:20.348Z,-2.97
